sensor_id;sensor_type;location;lat;lon;timestamp;P1;durP1;ratioP1;P2;durP2;ratioP2
14849;SDS011;7517;48.400;11.770;2023-03-01T00:01:18;8.07;;;6.67;;
14849;SDS011;7517;48.400;11.770;2023-03-01T00:03:47;9.13;;;7.70;;
14849;SDS011;7517;48.400;11.770;2023-03-01T00:06:17;9.40;;;7.00;;
14849;SDS011;7517;48.400;11.770;2023-03-01T00:08:46;8.43;;;7.03;;
14849;SDS011;7517;48.400;11.770;2023-03-01T00:11:15;9.13;;;7.70;;
14849;SDS011;7517;48.400;11.770;2023-03-01T00:13:45;8.27;;;7.13;;
14849;SDS011;7517;48.400;11.770;2023-03-01T00:16:17;11.43;;;8.30;;
14849;SDS011;7517;48.400;11.770;2023-03-01T00:18:47;9.83;;;7.83;;
14849;SDS011;7517;48.400;11.770;2023-03-01T00:21:17;9.30;;;7.50;;
14849;SDS011;7517;48.400;11.770;2023-03-01T00:23:47;9.03;;;7.17;;
14849;SDS011;7517;48.400;11.770;2023-03-01T00:26:15;9.90;;;7.80;;
14849;SDS011;7517;48.400;11.770;2023-03-01T00:28:45;9.73;;;7.70;;
14849;SDS011;7517;48.400;11.770;2023-03-01T00:31:14;11.90;;;7.23;;
14849;SDS011;7517;48.400;11.770;2023-03-01T00:33:44;8.83;;;7.37;;
14849;SDS011;7517;48.400;11.770;2023-03-01T00:36:14;8.33;;;6.80;;
14849;SDS011;7517;48.400;11.770;2023-03-01T00:38:43;9.00;;;7.20;;
14849;SDS011;7517;48.400;11.770;2023-03-01T00:41:13;7.83;;;7.03;;
14849;SDS011;7517;48.400;11.770;2023-03-01T00:43:43;9.00;;;7.43;;
14849;SDS011;7517;48.400;11.770;2023-03-01T00:46:13;9.27;;;7.20;;
14849;SDS011;7517;48.400;11.770;2023-03-01T00:48:42;8.50;;;7.60;;
14849;SDS011;7517;48.400;11.770;2023-03-01T00:51:12;9.83;;;7.10;;
14849;SDS011;7517;48.400;11.770;2023-03-01T00:53:43;10.13;;;7.43;;
14849;SDS011;7517;48.400;11.770;2023-03-01T00:56:11;9.10;;;7.30;;
14849;SDS011;7517;48.400;11.770;2023-03-01T00:58:41;10.10;;;7.70;;
14849;SDS011;7517;48.400;11.770;2023-03-01T01:01:09;8.23;;;7.37;;
14849;SDS011;7517;48.400;11.770;2023-03-01T01:03:44;9.10;;;7.43;;
14849;SDS011;7517;48.400;11.770;2023-03-01T01:06:15;9.07;;;7.40;;
14849;SDS011;7517;48.400;11.770;2023-03-01T01:08:44;8.93;;;7.37;;
14849;SDS011;7517;48.400;11.770;2023-03-01T01:11:13;10.37;;;7.33;;
14849;SDS011;7517;48.400;11.770;2023-03-01T01:13:41;9.53;;;7.43;;
14849;SDS011;7517;48.400;11.770;2023-03-01T01:16:10;9.73;;;7.23;;
14849;SDS011;7517;48.400;11.770;2023-03-01T01:18:37;9.03;;;7.50;;
14849;SDS011;7517;48.400;11.770;2023-03-01T01:21:06;10.27;;;7.30;;
14849;SDS011;7517;48.400;11.770;2023-03-01T01:23:37;9.23;;;6.90;;
14849;SDS011;7517;48.400;11.770;2023-03-01T01:26:07;9.27;;;7.57;;
14849;SDS011;7517;48.400;11.770;2023-03-01T01:28:37;10.60;;;7.90;;
14849;SDS011;7517;48.400;11.770;2023-03-01T01:31:05;9.07;;;7.20;;
14849;SDS011;7517;48.400;11.770;2023-03-01T01:33:33;9.73;;;7.23;;
14849;SDS011;7517;48.400;11.770;2023-03-01T01:36:02;10.60;;;7.30;;
14849;SDS011;7517;48.400;11.770;2023-03-01T01:38:30;9.83;;;7.23;;
14849;SDS011;7517;48.400;11.770;2023-03-01T01:40:59;8.83;;;7.77;;
14849;SDS011;7517;48.400;11.770;2023-03-01T01:43:27;8.13;;;7.10;;
14849;SDS011;7517;48.400;11.770;2023-03-01T01:45:59;8.53;;;7.10;;
14849;SDS011;7517;48.400;11.770;2023-03-01T01:48:39;8.57;;;7.00;;
14849;SDS011;7517;48.400;11.770;2023-03-01T01:51:11;10.60;;;8.13;;
14849;SDS011;7517;48.400;11.770;2023-03-01T01:53:45;8.60;;;7.57;;
14849;SDS011;7517;48.400;11.770;2023-03-01T01:56:22;8.30;;;7.33;;
14849;SDS011;7517;48.400;11.770;2023-03-01T01:58:53;9.10;;;6.97;;
14849;SDS011;7517;48.400;11.770;2023-03-01T02:01:22;8.20;;;6.60;;
14849;SDS011;7517;48.400;11.770;2023-03-01T02:03:49;9.87;;;7.30;;
14849;SDS011;7517;48.400;11.770;2023-03-01T02:06:19;9.77;;;7.00;;
14849;SDS011;7517;48.400;11.770;2023-03-01T02:08:54;9.37;;;7.10;;
14849;SDS011;7517;48.400;11.770;2023-03-01T02:11:27;10.00;;;7.03;;
14849;SDS011;7517;48.400;11.770;2023-03-01T02:13:58;8.80;;;7.70;;
14849;SDS011;7517;48.400;11.770;2023-03-01T02:16:26;9.17;;;7.57;;
14849;SDS011;7517;48.400;11.770;2023-03-01T02:18:56;9.60;;;7.37;;
14849;SDS011;7517;48.400;11.770;2023-03-01T02:21:28;9.17;;;7.37;;
14849;SDS011;7517;48.400;11.770;2023-03-01T02:24:10;8.40;;;7.17;;
14849;SDS011;7517;48.400;11.770;2023-03-01T02:26:53;8.73;;;6.97;;
14849;SDS011;7517;48.400;11.770;2023-03-01T02:29:24;9.00;;;7.27;;
14849;SDS011;7517;48.400;11.770;2023-03-01T02:31:55;9.33;;;7.00;;
14849;SDS011;7517;48.400;11.770;2023-03-01T02:34:28;9.00;;;7.47;;
14849;SDS011;7517;48.400;11.770;2023-03-01T02:37:00;8.80;;;6.97;;
14849;SDS011;7517;48.400;11.770;2023-03-01T02:39:31;9.37;;;7.23;;
14849;SDS011;7517;48.400;11.770;2023-03-01T02:42:07;9.00;;;7.43;;
14849;SDS011;7517;48.400;11.770;2023-03-01T02:44:43;8.93;;;6.87;;
14849;SDS011;7517;48.400;11.770;2023-03-01T02:47:10;9.83;;;7.23;;
14849;SDS011;7517;48.400;11.770;2023-03-01T02:49:38;8.43;;;7.43;;
14849;SDS011;7517;48.400;11.770;2023-03-01T02:52:16;8.33;;;7.07;;
14849;SDS011;7517;48.400;11.770;2023-03-01T02:55:22;7.77;;;6.80;;
14849;SDS011;7517;48.400;11.770;2023-03-01T02:57:50;10.13;;;7.63;;
14849;SDS011;7517;48.400;11.770;2023-03-01T03:00:20;8.33;;;6.80;;
14849;SDS011;7517;48.400;11.770;2023-03-01T03:02:53;10.73;;;7.20;;
14849;SDS011;7517;48.400;11.770;2023-03-01T03:05:22;9.80;;;7.63;;
14849;SDS011;7517;48.400;11.770;2023-03-01T03:07:55;8.43;;;7.20;;
14849;SDS011;7517;48.400;11.770;2023-03-01T03:10:24;9.10;;;7.60;;
14849;SDS011;7517;48.400;11.770;2023-03-01T03:12:55;11.53;;;8.00;;
14849;SDS011;7517;48.400;11.770;2023-03-01T03:15:28;9.83;;;7.63;;
14849;SDS011;7517;48.400;11.770;2023-03-01T03:17:57;9.20;;;7.23;;
14849;SDS011;7517;48.400;11.770;2023-03-01T03:20:26;10.17;;;8.03;;
14849;SDS011;7517;48.400;11.770;2023-03-01T03:22:55;10.03;;;8.03;;
14849;SDS011;7517;48.400;11.770;2023-03-01T03:25:24;10.40;;;7.73;;
14849;SDS011;7517;48.400;11.770;2023-03-01T03:27:54;12.80;;;7.43;;
14849;SDS011;7517;48.400;11.770;2023-03-01T03:30:23;9.33;;;8.03;;
14849;SDS011;7517;48.400;11.770;2023-03-01T03:32:55;9.33;;;7.63;;
14849;SDS011;7517;48.400;11.770;2023-03-01T03:35:25;10.10;;;7.63;;
14849;SDS011;7517;48.400;11.770;2023-03-01T03:37:56;9.37;;;7.70;;
14849;SDS011;7517;48.400;11.770;2023-03-01T03:40:29;9.60;;;7.50;;
14849;SDS011;7517;48.400;11.770;2023-03-01T03:42:59;8.73;;;7.83;;
14849;SDS011;7517;48.400;11.770;2023-03-01T03:45:29;9.17;;;7.80;;
14849;SDS011;7517;48.400;11.770;2023-03-01T03:47:58;9.73;;;7.57;;
14849;SDS011;7517;48.400;11.770;2023-03-01T03:50:25;9.00;;;7.80;;
14849;SDS011;7517;48.400;11.770;2023-03-01T03:52:53;9.10;;;7.53;;
14849;SDS011;7517;48.400;11.770;2023-03-01T03:55:22;10.47;;;8.37;;
14849;SDS011;7517;48.400;11.770;2023-03-01T03:57:55;11.23;;;8.03;;
14849;SDS011;7517;48.400;11.770;2023-03-01T04:00:29;9.87;;;7.67;;
14849;SDS011;7517;48.400;11.770;2023-03-01T04:02:56;11.87;;;8.03;;
14849;SDS011;7517;48.400;11.770;2023-03-01T04:05:23;11.23;;;7.83;;
14849;SDS011;7517;48.400;11.770;2023-03-01T04:07:51;9.17;;;7.77;;
14849;SDS011;7517;48.400;11.770;2023-03-01T04:10:33;9.40;;;7.43;;
14849;SDS011;7517;48.400;11.770;2023-03-01T04:13:03;10.20;;;7.50;;
14849;SDS011;7517;48.400;11.770;2023-03-01T04:15:33;10.93;;;8.17;;
14849;SDS011;7517;48.400;11.770;2023-03-01T04:18:01;9.60;;;7.87;;
14849;SDS011;7517;48.400;11.770;2023-03-01T04:20:31;9.93;;;7.43;;
14849;SDS011;7517;48.400;11.770;2023-03-01T04:23:01;11.73;;;8.20;;
14849;SDS011;7517;48.400;11.770;2023-03-01T04:25:38;11.60;;;8.80;;
14849;SDS011;7517;48.400;11.770;2023-03-01T04:28:08;9.03;;;7.43;;
14849;SDS011;7517;48.400;11.770;2023-03-01T04:30:37;12.87;;;8.63;;
14849;SDS011;7517;48.400;11.770;2023-03-01T04:33:10;11.50;;;8.23;;
14849;SDS011;7517;48.400;11.770;2023-03-01T04:35:38;10.03;;;7.70;;
14849;SDS011;7517;48.400;11.770;2023-03-01T04:38:06;11.30;;;8.20;;
14849;SDS011;7517;48.400;11.770;2023-03-01T04:40:35;10.73;;;7.37;;
14849;SDS011;7517;48.400;11.770;2023-03-01T04:43:03;11.93;;;8.70;;
14849;SDS011;7517;48.400;11.770;2023-03-01T04:45:31;11.23;;;8.10;;
14849;SDS011;7517;48.400;11.770;2023-03-01T04:48:02;9.30;;;7.77;;
14849;SDS011;7517;48.400;11.770;2023-03-01T04:50:31;10.00;;;8.17;;
14849;SDS011;7517;48.400;11.770;2023-03-01T04:52:59;12.00;;;9.47;;
14849;SDS011;7517;48.400;11.770;2023-03-01T04:55:27;11.63;;;8.13;;
14849;SDS011;7517;48.400;11.770;2023-03-01T04:57:55;12.53;;;8.33;;
14849;SDS011;7517;48.400;11.770;2023-03-01T05:00:22;11.07;;;8.17;;
14849;SDS011;7517;48.400;11.770;2023-03-01T05:02:51;13.07;;;8.50;;
14849;SDS011;7517;48.400;11.770;2023-03-01T05:05:24;10.70;;;8.07;;
14849;SDS011;7517;48.400;11.770;2023-03-01T05:07:55;11.53;;;8.60;;
14849;SDS011;7517;48.400;11.770;2023-03-01T05:10:25;10.47;;;8.07;;
14849;SDS011;7517;48.400;11.770;2023-03-01T05:12:55;12.23;;;9.17;;
14849;SDS011;7517;48.400;11.770;2023-03-01T05:15:24;10.37;;;8.30;;
14849;SDS011;7517;48.400;11.770;2023-03-01T05:17:52;12.03;;;8.53;;
14849;SDS011;7517;48.400;11.770;2023-03-01T05:20:24;11.13;;;8.07;;
14849;SDS011;7517;48.400;11.770;2023-03-01T05:22:55;12.17;;;9.07;;
14849;SDS011;7517;48.400;11.770;2023-03-01T05:25:30;11.37;;;8.47;;
14849;SDS011;7517;48.400;11.770;2023-03-01T05:28:05;12.17;;;8.50;;
14849;SDS011;7517;48.400;11.770;2023-03-01T05:30:37;11.67;;;8.63;;
14849;SDS011;7517;48.400;11.770;2023-03-01T05:33:05;10.00;;;8.40;;
14849;SDS011;7517;48.400;11.770;2023-03-01T05:35:39;11.10;;;8.90;;
14849;SDS011;7517;48.400;11.770;2023-03-01T05:38:08;12.13;;;9.00;;
14849;SDS011;7517;48.400;11.770;2023-03-01T05:40:38;11.93;;;8.33;;
14849;SDS011;7517;48.400;11.770;2023-03-01T05:43:06;11.40;;;8.50;;
14849;SDS011;7517;48.400;11.770;2023-03-01T05:45:35;12.60;;;8.93;;
14849;SDS011;7517;48.400;11.770;2023-03-01T05:48:05;11.43;;;9.07;;
14849;SDS011;7517;48.400;11.770;2023-03-01T05:50:34;10.40;;;8.13;;
14849;SDS011;7517;48.400;11.770;2023-03-01T05:53:06;12.03;;;9.67;;
14849;SDS011;7517;48.400;11.770;2023-03-01T05:55:38;11.00;;;9.03;;
14849;SDS011;7517;48.400;11.770;2023-03-01T05:58:06;12.73;;;9.70;;
14849;SDS011;7517;48.400;11.770;2023-03-01T06:00:40;12.83;;;9.33;;
14849;SDS011;7517;48.400;11.770;2023-03-01T06:03:09;10.87;;;8.67;;
14849;SDS011;7517;48.400;11.770;2023-03-01T06:05:41;11.00;;;9.10;;
14849;SDS011;7517;48.400;11.770;2023-03-01T06:08:12;12.67;;;9.77;;
14849;SDS011;7517;48.400;11.770;2023-03-01T06:10:39;11.23;;;8.57;;
14849;SDS011;7517;48.400;11.770;2023-03-01T06:13:07;11.00;;;8.57;;
14849;SDS011;7517;48.400;11.770;2023-03-01T06:15:35;13.07;;;9.57;;
14849;SDS011;7517;48.400;11.770;2023-03-01T06:18:03;12.57;;;9.30;;
14849;SDS011;7517;48.400;11.770;2023-03-01T06:20:30;12.70;;;9.30;;
14849;SDS011;7517;48.400;11.770;2023-03-01T06:22:58;14.03;;;10.13;;
14849;SDS011;7517;48.400;11.770;2023-03-01T06:25:27;16.70;;;9.93;;
14849;SDS011;7517;48.400;11.770;2023-03-01T06:27:54;11.50;;;9.10;;
14849;SDS011;7517;48.400;11.770;2023-03-01T06:30:25;12.00;;;9.30;;
14849;SDS011;7517;48.400;11.770;2023-03-01T06:32:53;13.97;;;9.83;;
14849;SDS011;7517;48.400;11.770;2023-03-01T06:35:26;11.67;;;9.07;;
14849;SDS011;7517;48.400;11.770;2023-03-01T06:37:56;10.90;;;8.23;;
14849;SDS011;7517;48.400;11.770;2023-03-01T06:40:28;13.23;;;9.17;;
14849;SDS011;7517;48.400;11.770;2023-03-01T06:42:57;12.57;;;9.87;;
14849;SDS011;7517;48.400;11.770;2023-03-01T06:45:27;12.60;;;9.73;;
14849;SDS011;7517;48.400;11.770;2023-03-01T06:48:01;13.13;;;9.17;;
14849;SDS011;7517;48.400;11.770;2023-03-01T06:50:31;12.13;;;9.30;;
14849;SDS011;7517;48.400;11.770;2023-03-01T06:52:58;12.60;;;9.20;;
14849;SDS011;7517;48.400;11.770;2023-03-01T06:55:28;10.97;;;9.03;;
14849;SDS011;7517;48.400;11.770;2023-03-01T06:57:56;14.20;;;10.47;;
14849;SDS011;7517;48.400;11.770;2023-03-01T07:00:27;13.57;;;8.70;;
14849;SDS011;7517;48.400;11.770;2023-03-01T07:02:57;14.27;;;9.50;;
14849;SDS011;7517;48.400;11.770;2023-03-01T07:05:27;13.67;;;10.20;;
14849;SDS011;7517;48.400;11.770;2023-03-01T07:07:55;13.77;;;9.07;;
14849;SDS011;7517;48.400;11.770;2023-03-01T07:10:22;12.97;;;9.87;;
14849;SDS011;7517;48.400;11.770;2023-03-01T07:12:55;13.60;;;9.60;;
14849;SDS011;7517;48.400;11.770;2023-03-01T07:15:23;13.63;;;9.20;;
14849;SDS011;7517;48.400;11.770;2023-03-01T07:17:52;13.57;;;9.17;;
14849;SDS011;7517;48.400;11.770;2023-03-01T07:20:20;14.03;;;10.20;;
14849;SDS011;7517;48.400;11.770;2023-03-01T07:22:50;12.90;;;9.43;;
14849;SDS011;7517;48.400;11.770;2023-03-01T07:25:17;13.50;;;9.73;;
14849;SDS011;7517;48.400;11.770;2023-03-01T07:27:48;12.50;;;9.77;;
14849;SDS011;7517;48.400;11.770;2023-03-01T07:30:19;12.60;;;9.90;;
14849;SDS011;7517;48.400;11.770;2023-03-01T07:32:50;14.47;;;9.53;;
14849;SDS011;7517;48.400;11.770;2023-03-01T07:35:18;13.37;;;10.27;;
14849;SDS011;7517;48.400;11.770;2023-03-01T07:37:46;14.17;;;10.10;;
14849;SDS011;7517;48.400;11.770;2023-03-01T07:40:13;13.40;;;9.43;;
14849;SDS011;7517;48.400;11.770;2023-03-01T07:42:41;12.30;;;8.57;;
14849;SDS011;7517;48.400;11.770;2023-03-01T07:45:09;14.60;;;9.83;;
14849;SDS011;7517;48.400;11.770;2023-03-01T07:47:39;14.60;;;9.80;;
14849;SDS011;7517;48.400;11.770;2023-03-01T07:50:07;13.63;;;9.73;;
14849;SDS011;7517;48.400;11.770;2023-03-01T07:52:38;14.23;;;9.80;;
14849;SDS011;7517;48.400;11.770;2023-03-01T07:55:06;14.30;;;9.57;;
14849;SDS011;7517;48.400;11.770;2023-03-01T07:57:34;13.10;;;9.27;;
14849;SDS011;7517;48.400;11.770;2023-03-01T08:00:02;13.13;;;9.23;;
14849;SDS011;7517;48.400;11.770;2023-03-01T08:02:32;14.23;;;10.13;;
14849;SDS011;7517;48.400;11.770;2023-03-01T08:05:01;13.23;;;9.90;;
14849;SDS011;7517;48.400;11.770;2023-03-01T08:07:29;13.63;;;9.30;;
14849;SDS011;7517;48.400;11.770;2023-03-01T08:09:57;12.30;;;9.03;;
14849;SDS011;7517;48.400;11.770;2023-03-01T08:12:24;13.80;;;10.80;;
14849;SDS011;7517;48.400;11.770;2023-03-01T08:14:53;12.47;;;8.87;;
14849;SDS011;7517;48.400;11.770;2023-03-01T08:17:20;12.67;;;9.47;;
14849;SDS011;7517;48.400;11.770;2023-03-01T08:19:47;14.47;;;9.67;;
14849;SDS011;7517;48.400;11.770;2023-03-01T08:22:16;13.43;;;9.70;;
14849;SDS011;7517;48.400;11.770;2023-03-01T08:24:44;14.07;;;9.63;;
14849;SDS011;7517;48.400;11.770;2023-03-01T08:27:14;12.30;;;9.23;;
14849;SDS011;7517;48.400;11.770;2023-03-01T08:29:42;11.77;;;10.20;;
14849;SDS011;7517;48.400;11.770;2023-03-01T08:32:09;13.00;;;9.37;;
14849;SDS011;7517;48.400;11.770;2023-03-01T08:34:37;13.27;;;9.33;;
14849;SDS011;7517;48.400;11.770;2023-03-01T08:37:04;11.17;;;9.50;;
14849;SDS011;7517;48.400;11.770;2023-03-01T08:39:33;11.43;;;9.63;;
14849;SDS011;7517;48.400;11.770;2023-03-01T08:42:01;11.17;;;9.00;;
14849;SDS011;7517;48.400;11.770;2023-03-01T08:44:28;13.17;;;9.20;;
14849;SDS011;7517;48.400;11.770;2023-03-01T08:46:55;13.90;;;10.17;;
14849;SDS011;7517;48.400;11.770;2023-03-01T08:49:23;12.53;;;10.17;;
14849;SDS011;7517;48.400;11.770;2023-03-01T08:51:50;12.23;;;9.37;;
14849;SDS011;7517;48.400;11.770;2023-03-01T08:54:20;13.13;;;9.87;;
14849;SDS011;7517;48.400;11.770;2023-03-01T08:56:49;13.07;;;9.40;;
14849;SDS011;7517;48.400;11.770;2023-03-01T08:59:17;13.47;;;9.97;;
14849;SDS011;7517;48.400;11.770;2023-03-01T09:01:45;11.93;;;9.53;;
14849;SDS011;7517;48.400;11.770;2023-03-01T09:04:12;12.60;;;9.70;;
14849;SDS011;7517;48.400;11.770;2023-03-01T09:06:42;12.23;;;10.23;;
14849;SDS011;7517;48.400;11.770;2023-03-01T09:09:12;12.97;;;9.83;;
14849;SDS011;7517;48.400;11.770;2023-03-01T09:11:41;12.37;;;9.67;;
14849;SDS011;7517;48.400;11.770;2023-03-01T09:14:13;11.63;;;8.93;;
14849;SDS011;7517;48.400;11.770;2023-03-01T09:16:41;11.57;;;8.90;;
14849;SDS011;7517;48.400;11.770;2023-03-01T09:19:08;12.97;;;9.30;;
14849;SDS011;7517;48.400;11.770;2023-03-01T09:21:36;12.77;;;9.57;;
14849;SDS011;7517;48.400;11.770;2023-03-01T09:24:05;11.43;;;9.27;;
14849;SDS011;7517;48.400;11.770;2023-03-01T09:26:33;11.77;;;8.90;;
14849;SDS011;7517;48.400;11.770;2023-03-01T09:29:00;10.40;;;8.73;;
14849;SDS011;7517;48.400;11.770;2023-03-01T09:31:29;10.63;;;8.33;;
14849;SDS011;7517;48.400;11.770;2023-03-01T09:33:56;11.67;;;9.03;;
14849;SDS011;7517;48.400;11.770;2023-03-01T09:36:24;10.50;;;8.53;;
14849;SDS011;7517;48.400;11.770;2023-03-01T09:38:52;10.20;;;8.27;;
14849;SDS011;7517;48.400;11.770;2023-03-01T09:41:33;14.83;;;10.90;;
14849;SDS011;7517;48.400;11.770;2023-03-01T09:44:22;12.13;;;9.07;;
14849;SDS011;7517;48.400;11.770;2023-03-01T09:47:00;11.80;;;9.13;;
14849;SDS011;7517;48.400;11.770;2023-03-01T09:49:30;11.27;;;8.77;;
14849;SDS011;7517;48.400;11.770;2023-03-01T09:52:09;10.43;;;8.50;;
14849;SDS011;7517;48.400;11.770;2023-03-01T09:54:52;10.20;;;8.93;;
14849;SDS011;7517;48.400;11.770;2023-03-01T09:57:26;12.40;;;8.80;;
14849;SDS011;7517;48.400;11.770;2023-03-01T10:00:09;11.60;;;9.00;;
14849;SDS011;7517;48.400;11.770;2023-03-01T10:02:53;12.20;;;8.67;;
14849;SDS011;7517;48.400;11.770;2023-03-01T10:05:31;10.47;;;8.90;;
14849;SDS011;7517;48.400;11.770;2023-03-01T10:08:23;10.43;;;8.17;;
14849;SDS011;7517;48.400;11.770;2023-03-01T10:10:56;13.20;;;8.00;;
14849;SDS011;7517;48.400;11.770;2023-03-01T10:13:26;11.43;;;9.47;;
14849;SDS011;7517;48.400;11.770;2023-03-01T10:16:05;11.73;;;9.10;;
14849;SDS011;7517;48.400;11.770;2023-03-01T10:18:42;10.17;;;9.10;;
14849;SDS011;7517;48.400;11.770;2023-03-01T10:21:15;10.30;;;8.47;;
14849;SDS011;7517;48.400;11.770;2023-03-01T10:23:45;9.80;;;8.37;;
14849;SDS011;7517;48.400;11.770;2023-03-01T10:26:22;12.13;;;8.83;;
14849;SDS011;7517;48.400;11.770;2023-03-01T10:29:18;11.37;;;9.40;;
14849;SDS011;7517;48.400;11.770;2023-03-01T10:31:57;9.37;;;8.37;;
14849;SDS011;7517;48.400;11.770;2023-03-01T10:34:28;12.17;;;8.83;;
14849;SDS011;7517;48.400;11.770;2023-03-01T10:37:01;10.50;;;8.03;;
14849;SDS011;7517;48.400;11.770;2023-03-01T10:39:36;9.87;;;8.73;;
14849;SDS011;7517;48.400;11.770;2023-03-01T10:42:22;12.30;;;9.13;;
14849;SDS011;7517;48.400;11.770;2023-03-01T10:44:55;11.00;;;8.43;;
14849;SDS011;7517;48.400;11.770;2023-03-01T10:47:25;10.57;;;8.50;;
14849;SDS011;7517;48.400;11.770;2023-03-01T10:49:59;9.90;;;8.17;;
14849;SDS011;7517;48.400;11.770;2023-03-01T10:52:31;9.40;;;8.37;;
14849;SDS011;7517;48.400;11.770;2023-03-01T10:55:03;9.40;;;7.90;;
14849;SDS011;7517;48.400;11.770;2023-03-01T10:57:51;9.90;;;8.60;;
14849;SDS011;7517;48.400;11.770;2023-03-01T11:00:46;9.57;;;7.87;;
14849;SDS011;7517;48.400;11.770;2023-03-01T11:03:21;9.30;;;8.17;;
14849;SDS011;7517;48.400;11.770;2023-03-01T11:05:54;10.87;;;8.10;;
14849;SDS011;7517;48.400;11.770;2023-03-01T11:08:32;11.47;;;8.77;;
14849;SDS011;7517;48.400;11.770;2023-03-01T11:13:57;10.17;;;8.43;;
14849;SDS011;7517;48.400;11.770;2023-03-01T11:16:34;10.73;;;8.23;;
14849;SDS011;7517;48.400;11.770;2023-03-01T11:19:15;10.77;;;8.47;;
14849;SDS011;7517;48.400;11.770;2023-03-01T11:21:53;10.97;;;8.33;;
14849;SDS011;7517;48.400;11.770;2023-03-01T11:24:30;9.60;;;8.13;;
14849;SDS011;7517;48.400;11.770;2023-03-01T11:27:18;9.27;;;8.10;;
14849;SDS011;7517;48.400;11.770;2023-03-01T11:29:52;10.40;;;8.00;;
14849;SDS011;7517;48.400;11.770;2023-03-01T11:32:27;11.37;;;9.20;;
14849;SDS011;7517;48.400;11.770;2023-03-01T11:35:09;10.27;;;8.03;;
14849;SDS011;7517;48.400;11.770;2023-03-01T11:37:48;10.67;;;8.17;;
14849;SDS011;7517;48.400;11.770;2023-03-01T11:40:30;8.90;;;7.60;;
14849;SDS011;7517;48.400;11.770;2023-03-01T11:43:09;8.73;;;7.83;;
14849;SDS011;7517;48.400;11.770;2023-03-01T11:45:50;10.60;;;8.47;;
14849;SDS011;7517;48.400;11.770;2023-03-01T11:48:44;11.77;;;8.00;;
14849;SDS011;7517;48.400;11.770;2023-03-01T11:51:24;9.03;;;7.50;;
14849;SDS011;7517;48.400;11.770;2023-03-01T11:57:11;9.87;;;7.47;;
14849;SDS011;7517;48.400;11.770;2023-03-01T12:00:06;8.97;;;7.87;;
14849;SDS011;7517;48.400;11.770;2023-03-01T12:03:07;12.00;;;7.83;;
14849;SDS011;7517;48.400;11.770;2023-03-01T12:09:11;10.17;;;7.63;;
14849;SDS011;7517;48.400;11.770;2023-03-01T12:12:15;10.70;;;8.53;;
14849;SDS011;7517;48.400;11.770;2023-03-01T12:15:09;11.27;;;8.00;;
14849;SDS011;7517;48.400;11.770;2023-03-01T12:18:12;9.90;;;7.33;;
14849;SDS011;7517;48.400;11.770;2023-03-01T12:21:09;8.93;;;6.97;;
14849;SDS011;7517;48.400;11.770;2023-03-01T12:23:56;9.13;;;8.23;;
14849;SDS011;7517;48.400;11.770;2023-03-01T12:26:50;10.13;;;8.07;;
14849;SDS011;7517;48.400;11.770;2023-03-01T12:29:40;10.87;;;7.93;;
14849;SDS011;7517;48.400;11.770;2023-03-01T12:32:20;9.30;;;7.53;;
14849;SDS011;7517;48.400;11.770;2023-03-01T12:35:04;9.43;;;7.70;;
14849;SDS011;7517;48.400;11.770;2023-03-01T12:37:51;8.30;;;7.13;;
14849;SDS011;7517;48.400;11.770;2023-03-01T12:40:32;9.13;;;7.13;;
14849;SDS011;7517;48.400;11.770;2023-03-01T12:43:26;8.50;;;7.60;;
14849;SDS011;7517;48.400;11.770;2023-03-01T12:46:13;9.20;;;7.37;;
14849;SDS011;7517;48.400;11.770;2023-03-01T12:48:53;9.00;;;7.43;;
14849;SDS011;7517;48.400;11.770;2023-03-01T12:51:35;7.57;;;6.77;;
14849;SDS011;7517;48.400;11.770;2023-03-01T12:54:07;8.53;;;7.43;;
14849;SDS011;7517;48.400;11.770;2023-03-01T12:56:43;11.03;;;6.80;;
14849;SDS011;7517;48.400;11.770;2023-03-01T12:59:18;9.03;;;7.57;;
14849;SDS011;7517;48.400;11.770;2023-03-01T13:02:00;8.43;;;6.63;;
14849;SDS011;7517;48.400;11.770;2023-03-01T13:04:46;9.57;;;7.10;;
14849;SDS011;7517;48.400;11.770;2023-03-01T13:07:34;8.83;;;6.90;;
14849;SDS011;7517;48.400;11.770;2023-03-01T13:10:17;9.37;;;7.23;;
14849;SDS011;7517;48.400;11.770;2023-03-01T13:13:00;8.03;;;6.80;;
14849;SDS011;7517;48.400;11.770;2023-03-01T13:15:47;7.47;;;6.17;;
14849;SDS011;7517;48.400;11.770;2023-03-01T13:18:28;9.40;;;7.17;;
14849;SDS011;7517;48.400;11.770;2023-03-01T13:20:59;7.93;;;6.87;;
14849;SDS011;7517;48.400;11.770;2023-03-01T13:23:31;8.93;;;6.63;;
14849;SDS011;7517;48.400;11.770;2023-03-01T13:26:08;8.10;;;6.93;;
14849;SDS011;7517;48.400;11.770;2023-03-01T13:28:46;7.80;;;7.00;;
14849;SDS011;7517;48.400;11.770;2023-03-01T13:37:32;9.20;;;6.77;;
14849;SDS011;7517;48.400;11.770;2023-03-01T13:43:27;8.07;;;7.07;;
14849;SDS011;7517;48.400;11.770;2023-03-01T13:45:59;8.47;;;7.03;;
14849;SDS011;7517;48.400;11.770;2023-03-01T13:48:36;7.97;;;6.40;;
14849;SDS011;7517;48.400;11.770;2023-03-01T13:51:08;7.80;;;6.53;;
14849;SDS011;7517;48.400;11.770;2023-03-01T13:53:39;8.53;;;6.70;;
14849;SDS011;7517;48.400;11.770;2023-03-01T13:56:11;7.47;;;6.67;;
14849;SDS011;7517;48.400;11.770;2023-03-01T13:58:50;9.23;;;6.90;;
14849;SDS011;7517;48.400;11.770;2023-03-01T14:01:22;8.53;;;6.87;;
14849;SDS011;7517;48.400;11.770;2023-03-01T14:03:52;9.57;;;7.57;;
14849;SDS011;7517;48.400;11.770;2023-03-01T14:06:22;7.93;;;6.93;;
14849;SDS011;7517;48.400;11.770;2023-03-01T14:08:59;8.90;;;6.97;;
14849;SDS011;7517;48.400;11.770;2023-03-01T14:14:52;8.80;;;6.57;;
14849;SDS011;7517;48.400;11.770;2023-03-01T14:17:34;7.17;;;6.40;;
14849;SDS011;7517;48.400;11.770;2023-03-01T14:20:21;7.20;;;6.40;;
14849;SDS011;7517;48.400;11.770;2023-03-01T14:22:54;9.97;;;6.53;;
14849;SDS011;7517;48.400;11.770;2023-03-01T14:25:27;8.03;;;7.03;;
14849;SDS011;7517;48.400;11.770;2023-03-01T14:28:01;8.77;;;7.03;;
14849;SDS011;7517;48.400;11.770;2023-03-01T14:30:40;6.43;;;5.73;;
14849;SDS011;7517;48.400;11.770;2023-03-01T14:33:19;7.60;;;6.20;;
14849;SDS011;7517;48.400;11.770;2023-03-01T14:35:54;7.93;;;6.47;;
14849;SDS011;7517;48.400;11.770;2023-03-01T14:38:31;8.30;;;5.83;;
14849;SDS011;7517;48.400;11.770;2023-03-01T14:41:03;7.50;;;6.23;;
14849;SDS011;7517;48.400;11.770;2023-03-01T14:43:36;6.93;;;5.27;;
14849;SDS011;7517;48.400;11.770;2023-03-01T14:46:16;7.83;;;5.83;;
14849;SDS011;7517;48.400;11.770;2023-03-01T14:48:48;6.73;;;5.40;;
14849;SDS011;7517;48.400;11.770;2023-03-01T14:51:18;6.57;;;5.80;;
14849;SDS011;7517;48.400;11.770;2023-03-01T14:53:47;6.33;;;5.73;;
14849;SDS011;7517;48.400;11.770;2023-03-01T14:56:16;8.77;;;5.67;;
14849;SDS011;7517;48.400;11.770;2023-03-01T14:58:46;8.90;;;5.77;;
14849;SDS011;7517;48.400;11.770;2023-03-01T15:01:18;8.20;;;5.70;;
14849;SDS011;7517;48.400;11.770;2023-03-01T15:04:02;6.10;;;5.50;;
14849;SDS011;7517;48.400;11.770;2023-03-01T15:06:32;6.33;;;5.67;;
14849;SDS011;7517;48.400;11.770;2023-03-01T15:09:01;6.27;;;5.47;;
14849;SDS011;7517;48.400;11.770;2023-03-01T15:11:30;5.80;;;5.03;;
14849;SDS011;7517;48.400;11.770;2023-03-01T15:14:01;6.77;;;5.53;;
14849;SDS011;7517;48.400;11.770;2023-03-01T15:16:54;5.97;;;5.37;;
14849;SDS011;7517;48.400;11.770;2023-03-01T15:19:23;7.33;;;5.53;;
14849;SDS011;7517;48.400;11.770;2023-03-01T15:21:54;5.77;;;5.03;;
14849;SDS011;7517;48.400;11.770;2023-03-01T15:24:25;5.70;;;5.13;;
14849;SDS011;7517;48.400;11.770;2023-03-01T15:26:55;7.27;;;5.60;;
14849;SDS011;7517;48.400;11.770;2023-03-01T15:29:27;5.30;;;4.80;;
14849;SDS011;7517;48.400;11.770;2023-03-01T15:31:59;6.23;;;5.37;;
14849;SDS011;7517;48.400;11.770;2023-03-01T15:34:36;6.60;;;4.50;;
14849;SDS011;7517;48.400;11.770;2023-03-01T15:37:34;5.80;;;4.73;;